sensor_id;sensor_type;location;lat;lon;timestamp;pressure;altitude;pressure_sealevel;temperature;humidity
72157;BME280;60035;52.122;5.406;2023-04-30T00:00:33;102581.31;;;7.80;89.60
72157;BME280;60035;52.122;5.406;2023-04-30T00:03:01;102583.78;;;7.72;90.39
72157;BME280;60035;52.122;5.406;2023-04-30T00:05:27;102580.34;;;7.67;91.48
72157;BME280;60035;52.122;5.406;2023-04-30T00:07:54;102576.03;;;7.63;92.11
72157;BME280;60035;52.122;5.406;2023-04-30T00:10:20;102581.97;;;7.60;92.68
72157;BME280;60035;52.122;5.406;2023-04-30T00:12:47;102578.59;;;7.61;92.64
72157;BME280;60035;52.122;5.406;2023-04-30T00:15:13;102573.50;;;7.61;92.66
72157;BME280;60035;52.122;5.406;2023-04-30T00:17:39;102571.75;;;7.56;92.54
72157;BME280;60035;52.122;5.406;2023-04-30T00:20:06;102580.13;;;7.48;93.17
72157;BME280;60035;52.122;5.406;2023-04-30T00:22:33;102580.94;;;7.43;93.78
72157;BME280;60035;52.122;5.406;2023-04-30T00:25:00;102579.19;;;7.39;94.14
72157;BME280;60035;52.122;5.406;2023-04-30T00:27:26;102574.94;;;7.39;94.79
72157;BME280;60035;52.122;5.406;2023-04-30T00:29:53;102576.63;;;7.37;94.78
72157;BME280;60035;52.122;5.406;2023-04-30T00:32:21;102583.38;;;7.35;95.16
72157;BME280;60035;52.122;5.406;2023-04-30T00:34:47;102577.44;;;7.34;94.69
72157;BME280;60035;52.122;5.406;2023-04-30T00:37:14;102574.88;;;7.33;94.39
72157;BME280;60035;52.122;5.406;2023-04-30T00:39:40;102578.19;;;7.29;94.70
72157;BME280;60035;52.122;5.406;2023-04-30T00:42:07;102577.28;;;7.22;94.89
72157;BME280;60035;52.122;5.406;2023-04-30T00:44:33;102577.22;;;7.16;95.48
72157;BME280;60035;52.122;5.406;2023-04-30T00:46:59;102584.84;;;7.16;95.31
72157;BME280;60035;52.122;5.406;2023-04-30T00:49:26;102589.88;;;7.11;95.75
72157;BME280;60035;52.122;5.406;2023-04-30T00:51:53;102589.03;;;7.12;95.90
72157;BME280;60035;52.122;5.406;2023-04-30T00:54:22;102593.22;;;7.09;96.53
72157;BME280;60035;52.122;5.406;2023-04-30T00:56:49;102595.78;;;7.10;96.03
72157;BME280;60035;52.122;5.406;2023-04-30T00:59:16;102598.31;;;7.07;96.32
72157;BME280;60035;52.122;5.406;2023-04-30T01:01:42;102599.94;;;7.04;96.54
72157;BME280;60035;52.122;5.406;2023-04-30T01:04:09;102595.66;;;6.99;97.31
72157;BME280;60035;52.122;5.406;2023-04-30T01:06:36;102588.00;;;6.98;97.63
72157;BME280;60035;52.122;5.406;2023-04-30T01:09:02;102589.75;;;7.04;97.41
72157;BME280;60035;52.122;5.406;2023-04-30T01:11:48;102599.91;;;7.00;97.80
72157;BME280;60035;52.122;5.406;2023-04-30T01:14:27;102598.88;;;6.88;97.74
72157;BME280;60035;52.122;5.406;2023-04-30T01:17:05;102605.59;;;6.82;98.27
72157;BME280;60035;52.122;5.406;2023-04-30T01:19:46;102595.31;;;6.75;98.87
72157;BME280;60035;52.122;5.406;2023-04-30T01:22:29;102599.50;;;6.71;98.95
72157;BME280;60035;52.122;5.406;2023-04-30T01:28:04;102596.97;;;6.71;99.10
72157;BME280;60035;52.122;5.406;2023-04-30T01:30:32;102602.84;;;6.67;99.16
72157;BME280;60035;52.122;5.406;2023-04-30T01:32:59;102605.38;;;6.65;99.21
72157;BME280;60035;52.122;5.406;2023-04-30T01:40:53;102598.41;;;6.55;99.73
72157;BME280;60035;52.122;5.406;2023-04-30T01:46:20;102601.78;;;6.54;99.98
72157;BME280;60035;52.122;5.406;2023-04-30T01:49:02;102602.63;;;6.55;99.77
72157;BME280;60035;52.122;5.406;2023-04-30T01:54:16;102603.53;;;6.57;100.00
72157;BME280;60035;52.122;5.406;2023-04-30T01:57:12;102611.16;;;6.55;100.00
72157;BME280;60035;52.122;5.406;2023-04-30T01:59:38;102616.09;;;6.47;100.00
72157;BME280;60035;52.122;5.406;2023-04-30T02:02:05;102612.63;;;6.42;100.00
72157;BME280;60035;52.122;5.406;2023-04-30T02:04:32;102610.97;;;6.44;100.00
72157;BME280;60035;52.122;5.406;2023-04-30T02:06:58;102607.63;;;6.47;100.00
72157;BME280;60035;52.122;5.406;2023-04-30T02:09:25;102612.66;;;6.44;100.00
72157;BME280;60035;52.122;5.406;2023-04-30T02:11:51;102608.31;;;6.38;100.00
72157;BME280;60035;52.122;5.406;2023-04-30T02:14:18;102616.66;;;6.29;100.00
72157;BME280;60035;52.122;5.406;2023-04-30T02:16:44;102616.63;;;6.28;100.00
72157;BME280;60035;52.122;5.406;2023-04-30T02:19:10;102610.66;;;6.26;100.00
72157;BME280;60035;52.122;5.406;2023-04-30T02:21:37;102609.91;;;6.31;100.00
72157;BME280;60035;52.122;5.406;2023-04-30T02:24:04;102602.19;;;6.28;100.00
72157;BME280;60035;52.122;5.406;2023-04-30T02:26:31;102605.59;;;6.26;100.00
72157;BME280;60035;52.122;5.406;2023-04-30T02:28:57;102610.66;;;6.26;100.00
72157;BME280;60035;52.122;5.406;2023-04-30T02:31:24;102599.56;;;6.21;100.00
72157;BME280;60035;52.122;5.406;2023-04-30T02:33:50;102595.28;;;6.18;100.00
72157;BME280;60035;52.122;5.406;2023-04-30T02:36:17;102600.34;;;6.18;100.00
72157;BME280;60035;52.122;5.406;2023-04-30T02:38:43;102609.63;;;6.14;100.00
72157;BME280;60035;52.122;5.406;2023-04-30T02:41:10;102605.44;;;6.16;100.00
72157;BME280;60035;52.122;5.406;2023-04-30T02:43:36;102604.56;;;6.16;100.00
72157;BME280;60035;52.122;5.406;2023-04-30T02:46:02;102597.69;;;6.12;100.00
72157;BME280;60035;52.122;5.406;2023-04-30T02:48:29;102606.16;;;6.11;100.00
72157;BME280;60035;52.122;5.406;2023-04-30T02:50:55;102605.31;;;6.10;100.00
72157;BME280;60035;52.122;5.406;2023-04-30T02:53:22;102593.25;;;6.00;100.00
72157;BME280;60035;52.122;5.406;2023-04-30T02:55:48;102600.78;;;5.95;100.00
72157;BME280;60035;52.122;5.406;2023-04-30T02:58:15;102598.88;;;5.85;100.00
72157;BME280;60035;52.122;5.406;2023-04-30T03:00:41;102592.75;;;5.75;100.00
72157;BME280;60035;52.122;5.406;2023-04-30T03:03:07;102600.31;;;5.71;100.00
72157;BME280;60035;52.122;5.406;2023-04-30T03:05:34;102598.47;;;5.63;100.00
72157;BME280;60035;52.122;5.406;2023-04-30T03:08:01;102590.81;;;5.62;100.00
72157;BME280;60035;52.122;5.406;2023-04-30T03:10:27;102593.34;;;5.62;100.00
72157;BME280;60035;52.122;5.406;2023-04-30T03:12:53;102600.16;;;5.63;100.00
72157;BME280;60035;52.122;5.406;2023-04-30T03:15:20;102601.00;;;5.63;100.00
72157;BME280;60035;52.122;5.406;2023-04-30T03:17:46;102593.31;;;5.59;100.00
72157;BME280;60035;52.122;5.406;2023-04-30T03:20:13;102597.47;;;5.55;100.00
72157;BME280;60035;52.122;5.406;2023-04-30T03:22:39;102593.25;;;5.56;100.00
72157;BME280;60035;52.122;5.406;2023-04-30T03:25:07;102595.75;;;5.54;100.00
72157;BME280;60035;52.122;5.406;2023-04-30T03:27:34;102602.53;;;5.54;100.00
72157;BME280;60035;52.122;5.406;2023-04-30T03:30:00;102596.47;;;5.48;100.00
72157;BME280;60035;52.122;5.406;2023-04-30T03:32:26;102596.31;;;5.41;100.00
72157;BME280;60035;52.122;5.406;2023-04-30T03:34:53;102603.06;;;5.37;100.00
72157;BME280;60035;52.122;5.406;2023-04-30T03:37:19;102590.25;;;5.34;100.00
72157;BME280;60035;52.122;5.406;2023-04-30T03:39:46;102590.19;;;5.29;100.00
72157;BME280;60035;52.122;5.406;2023-04-30T03:42:12;102591.81;;;5.27;100.00
72157;BME280;60035;52.122;5.406;2023-04-30T03:44:39;102591.75;;;5.24;100.00
72157;BME280;60035;52.122;5.406;2023-04-30T03:47:05;102589.94;;;5.18;100.00
72157;BME280;60035;52.122;5.406;2023-04-30T03:49:32;102584.81;;;5.15;100.00
72157;BME280;60035;52.122;5.406;2023-04-30T03:51:58;102588.06;;;5.10;100.00
72157;BME280;60035;52.122;5.406;2023-04-30T03:54:25;102583.66;;;5.03;100.00
72157;BME280;60035;52.122;5.406;2023-04-30T03:56:51;102580.25;;;5.00;100.00
72157;BME280;60035;52.122;5.406;2023-04-30T03:59:17;102588.75;;;5.03;100.00
72157;BME280;60035;52.122;5.406;2023-04-30T04:01:44;102591.28;;;5.03;100.00
72157;BME280;60035;52.122;5.406;2023-04-30T04:04:11;102592.94;;;5.00;100.00
72157;BME280;60035;52.122;5.406;2023-04-30T04:06:37;102592.94;;;5.00;100.00
72157;BME280;60035;52.122;5.406;2023-04-30T04:09:04;102587.06;;;5.02;100.00
72157;BME280;60035;52.122;5.406;2023-04-30T04:11:31;102587.09;;;5.03;100.00
72157;BME280;60035;52.122;5.406;2023-04-30T04:13:58;102590.44;;;5.02;100.00
72157;BME280;60035;52.122;5.406;2023-04-30T04:16:25;102594.69;;;5.02;100.00
72157;BME280;60035;52.122;5.406;2023-04-30T04:18:52;102586.94;;;4.97;100.00
72157;BME280;60035;52.122;5.406;2023-04-30T04:21:18;102593.75;;;4.98;100.00
72157;BME280;60035;52.122;5.406;2023-04-30T04:23:45;102584.38;;;4.95;100.00
72157;BME280;60035;52.122;5.406;2023-04-30T04:26:11;102583.47;;;4.93;100.00
72157;BME280;60035;52.122;5.406;2023-04-30T04:28:38;102583.44;;;4.92;100.00
72157;BME280;60035;52.122;5.406;2023-04-30T04:31:04;102585.91;;;4.89;100.00
72157;BME280;60035;52.122;5.406;2023-04-30T04:33:30;102584.09;;;4.83;100.00
72157;BME280;60035;52.122;5.406;2023-04-30T04:35:57;102587.34;;;4.77;100.00
72157;BME280;60035;52.122;5.406;2023-04-30T04:38:24;102591.44;;;4.72;100.00
72157;BME280;60035;52.122;5.406;2023-04-30T04:40:52;102593.19;;;4.75;100.00
72157;BME280;60035;52.122;5.406;2023-04-30T04:43:19;102589.13;;;4.81;100.00
72157;BME280;60035;52.122;5.406;2023-04-30T04:45:45;102600.22;;;4.85;100.00
72157;BME280;60035;52.122;5.406;2023-04-30T04:48:13;102598.56;;;4.86;100.00
72157;BME280;60035;52.122;5.406;2023-04-30T04:50:40;102602.75;;;4.85;100.00
72157;BME280;60035;52.122;5.406;2023-04-30T04:53:06;102597.78;;;4.90;100.00
72157;BME280;60035;52.122;5.406;2023-04-30T04:55:33;102605.44;;;4.91;100.00
72157;BME280;60035;52.122;5.406;2023-04-30T04:58:00;102603.88;;;4.96;100.00
72157;BME280;60035;52.122;5.406;2023-04-30T05:00:26;102599.63;;;4.97;100.00
72157;BME280;60035;52.122;5.406;2023-04-30T05:02:54;102598.00;;;4.99;100.00
72157;BME280;60035;52.122;5.406;2023-04-30T05:05:20;102592.97;;;5.02;100.00
72157;BME280;60035;52.122;5.406;2023-04-30T05:07:47;102597.28;;;5.06;100.00
72157;BME280;60035;52.122;5.406;2023-04-30T05:10:15;102596.50;;;5.09;100.00
72157;BME280;60035;52.122;5.406;2023-04-30T05:12:42;102588.22;;;5.16;100.00
72157;BME280;60035;52.122;5.406;2023-04-30T05:15:08;102591.75;;;5.24;100.00
72157;BME280;60035;52.122;5.406;2023-04-30T05:17:35;102584.31;;;5.32;100.00
72157;BME280;60035;52.122;5.406;2023-04-30T05:20:02;102580.25;;;5.40;100.00
72157;BME280;60035;52.122;5.406;2023-04-30T05:22:28;102576.13;;;5.47;100.00
72157;BME280;60035;52.122;5.406;2023-04-30T05:24:55;102581.34;;;5.53;100.00
72157;BME280;60035;52.122;5.406;2023-04-30T05:27:21;102589.09;;;5.61;100.00
72157;BME280;60035;52.122;5.406;2023-04-30T05:29:48;102593.50;;;5.70;100.00
72157;BME280;60035;52.122;5.406;2023-04-30T05:32:14;102597.03;;;5.76;100.00
72157;BME280;60035;52.122;5.406;2023-04-30T05:34:41;102601.34;;;5.80;100.00
72157;BME280;60035;52.122;5.406;2023-04-30T05:37:07;102606.66;;;5.93;100.00
72157;BME280;60035;52.122;5.406;2023-04-30T05:39:34;102600.22;;;6.10;100.00
72157;BME280;60035;52.122;5.406;2023-04-30T05:42:00;102599.56;;;6.22;100.00
72157;BME280;60035;52.122;5.406;2023-04-30T05:44:27;102607.38;;;6.33;100.00
72157;BME280;60035;52.122;5.406;2023-04-30T05:46:55;102613.53;;;6.46;100.00
72157;BME280;60035;52.122;5.406;2023-04-30T05:49:21;102609.47;;;6.57;100.00
72157;BME280;60035;52.122;5.406;2023-04-30T05:51:48;102621.53;;;6.69;100.00
72157;BME280;60035;52.122;5.406;2023-04-30T05:54:14;102627.66;;;6.80;100.00
72157;BME280;60035;52.122;5.406;2023-04-30T05:56:41;102621.88;;;6.92;100.00
72157;BME280;60035;52.122;5.406;2023-04-30T05:59:08;102624.56;;;7.02;100.00
72157;BME280;60035;52.122;5.406;2023-04-30T06:01:34;102616.22;;;7.12;100.00
72157;BME280;60035;52.122;5.406;2023-04-30T06:04:01;102621.47;;;7.23;100.00
72157;BME280;60035;52.122;5.406;2023-04-30T06:06:30;102620.75;;;7.33;100.00
72157;BME280;60035;52.122;5.406;2023-04-30T06:08:56;102618.31;;;7.44;100.00
72157;BME280;60035;52.122;5.406;2023-04-30T06:11:23;102618.44;;;7.52;100.00
72157;BME280;60035;52.122;5.406;2023-04-30T06:13:52;102620.22;;;7.60;100.00
72157;BME280;60035;52.122;5.406;2023-04-30T06:16:19;102622.03;;;7.71;100.00
72157;BME280;60035;52.122;5.406;2023-04-30T06:18:45;102622.97;;;7.79;100.00
72157;BME280;60035;52.122;5.406;2023-04-30T06:21:12;102632.44;;;7.89;100.00
72157;BME280;60035;52.122;5.406;2023-04-30T06:23:38;102627.44;;;7.98;100.00
72157;BME280;60035;52.122;5.406;2023-04-30T06:26:04;102631.72;;;8.04;100.00
72157;BME280;60035;52.122;5.406;2023-04-30T06:28:31;102630.13;;;8.14;100.00
72157;BME280;60035;52.122;5.406;2023-04-30T06:30:58;102632.78;;;8.25;100.00
72157;BME280;60035;52.122;5.406;2023-04-30T06:33:24;102622.66;;;8.34;100.00
72157;BME280;60035;52.122;5.406;2023-04-30T06:35:50;102625.28;;;8.42;100.00
72157;BME280;60035;52.122;5.406;2023-04-30T06:38:20;102633.03;;;8.49;100.00
72157;BME280;60035;52.122;5.406;2023-04-30T06:40:46;102624.56;;;8.58;100.00
72157;BME280;60035;52.122;5.406;2023-04-30T06:43:13;102630.63;;;8.70;100.00
72157;BME280;60035;52.122;5.406;2023-04-30T06:45:39;102624.72;;;8.77;100.00
72157;BME280;60035;52.122;5.406;2023-04-30T06:48:06;102629.03;;;8.86;100.00
72157;BME280;60035;52.122;5.406;2023-04-30T06:50:33;102629.09;;;8.92;100.00
72157;BME280;60035;52.122;5.406;2023-04-30T06:52:59;102621.44;;;8.99;100.00
72157;BME280;60035;52.122;5.406;2023-04-30T06:55:26;102624.06;;;9.09;100.00
72157;BME280;60035;52.122;5.406;2023-04-30T06:57:53;102628.41;;;9.22;100.00
72157;BME280;60035;52.122;5.406;2023-04-30T07:00:19;102625.03;;;9.32;100.00
72157;BME280;60035;52.122;5.406;2023-04-30T07:02:46;102625.09;;;9.45;100.00
72157;BME280;60035;52.122;5.406;2023-04-30T07:05:16;102625.97;;;9.53;100.00
72157;BME280;60035;52.122;5.406;2023-04-30T07:07:43;102620.88;;;9.62;100.00
72157;BME280;60035;52.122;5.406;2023-04-30T07:10:10;102626.88;;;9.71;100.00
72157;BME280;60035;52.122;5.406;2023-04-30T07:12:37;102623.50;;;9.78;100.00
72157;BME280;60035;52.122;5.406;2023-04-30T07:15:03;102627.78;;;9.87;100.00
72157;BME280;60035;52.122;5.406;2023-04-30T07:17:30;102634.63;;;9.95;100.00
72157;BME280;60035;52.122;5.406;2023-04-30T07:19:56;102623.56;;;10.04;100.00
72157;BME280;60035;52.122;5.406;2023-04-30T07:22:23;102627.81;;;10.13;100.00
72157;BME280;60035;52.122;5.406;2023-04-30T07:24:49;102628.69;;;10.16;100.00
72157;BME280;60035;52.122;5.406;2023-04-30T07:27:16;102638.09;;;10.27;100.00
72157;BME280;60035;52.122;5.406;2023-04-30T07:29:42;102636.41;;;10.35;100.00
72157;BME280;60035;52.122;5.406;2023-04-30T07:32:09;102633.88;;;10.41;99.31
72157;BME280;60035;52.122;5.406;2023-04-30T07:34:36;102627.88;;;10.48;98.94
72157;BME280;60035;52.122;5.406;2023-04-30T07:37:02;102635.53;;;10.59;98.45
72157;BME280;60035;52.122;5.406;2023-04-30T07:39:29;102621.91;;;10.65;97.73
72157;BME280;60035;52.122;5.406;2023-04-30T07:41:56;102632.13;;;10.70;97.70
72157;BME280;60035;52.122;5.406;2023-04-30T07:44:22;102634.69;;;10.77;97.32
72157;BME280;60035;52.122;5.406;2023-04-30T07:46:49;102633.81;;;10.89;97.09
72157;BME280;60035;52.122;5.406;2023-04-30T07:49:15;102623.53;;;10.94;96.38
72157;BME280;60035;52.122;5.406;2023-04-30T07:51:41;102633.75;;;11.03;96.26
72157;BME280;60035;52.122;5.406;2023-04-30T07:54:08;102629.50;;;11.11;95.92
72157;BME280;60035;52.122;5.406;2023-04-30T07:56:34;102629.47;;;11.14;95.65
72157;BME280;60035;52.122;5.406;2023-04-30T07:59:01;102626.03;;;11.22;94.98
72157;BME280;60035;52.122;5.406;2023-04-30T08:01:27;102619.16;;;11.27;95.15
72157;BME280;60035;52.122;5.406;2023-04-30T08:03:57;102620.00;;;11.37;95.02
72157;BME280;60035;52.122;5.406;2023-04-30T08:06:26;102624.22;;;11.48;94.64
72157;BME280;60035;52.122;5.406;2023-04-30T08:08:53;102625.06;;;11.54;93.94
72157;BME280;60035;52.122;5.406;2023-04-30T08:11:21;102619.03;;;11.61;93.44
72157;BME280;60035;52.122;5.406;2023-04-30T08:13:48;102623.25;;;11.66;92.99
72157;BME280;60035;52.122;5.406;2023-04-30T08:16:14;102623.22;;;11.74;92.58
72157;BME280;60035;52.122;5.406;2023-04-30T08:18:42;102619.75;;;11.80;92.09
72157;BME280;60035;52.122;5.406;2023-04-30T08:21:13;102618.84;;;11.92;91.90
72157;BME280;60035;52.122;5.406;2023-04-30T08:23:40;102617.94;;;12.04;91.49
72157;BME280;60035;52.122;5.406;2023-04-30T08:26:07;102620.44;;;12.11;91.23
72157;BME280;60035;52.122;5.406;2023-04-30T08:28:33;102617.81;;;12.24;90.98
72157;BME280;60035;52.122;5.406;2023-04-30T08:30:59;102616.03;;;12.29;89.75
72157;BME280;60035;52.122;5.406;2023-04-30T08:33:26;102621.94;;;12.40;89.69
72157;BME280;60035;52.122;5.406;2023-04-30T08:35:53;102627.88;;;12.48;88.57
72157;BME280;60035;52.122;5.406;2023-04-30T08:38:19;102618.41;;;12.54;88.59
72157;BME280;60035;52.122;5.406;2023-04-30T08:40:51;102622.63;;;12.59;87.40
72157;BME280;60035;52.122;5.406;2023-04-30T08:43:19;102618.31;;;12.63;87.73
72157;BME280;60035;52.122;5.406;2023-04-30T08:45:46;102610.50;;;12.74;87.06
72157;BME280;60035;52.122;5.406;2023-04-30T08:48:14;102612.06;;;12.87;86.94
72157;BME280;60035;52.122;5.406;2023-04-30T08:50:41;102610.28;;;12.95;85.88
72157;BME280;60035;52.122;5.406;2023-04-30T08:53:09;102615.31;;;13.05;85.42
72157;BME280;60035;52.122;5.406;2023-04-30T08:55:38;102610.97;;;13.11;84.35
72157;BME280;60035;52.122;5.406;2023-04-30T08:58:07;102608.25;;;13.22;84.13
72157;BME280;60035;52.122;5.406;2023-04-30T09:00:37;102610.63;;;13.41;83.24
72157;BME280;60035;52.122;5.406;2023-04-30T09:03:04;102612.16;;;13.54;82.36
72157;BME280;60035;52.122;5.406;2023-04-30T09:05:31;102608.53;;;13.71;82.28
72157;BME280;60035;52.122;5.406;2023-04-30T09:07:58;102605.84;;;13.77;81.60
72157;BME280;60035;52.122;5.406;2023-04-30T09:10:32;102598.84;;;13.87;80.72
72157;BME280;60035;52.122;5.406;2023-04-30T09:13:07;102595.34;;;13.91;80.19
72157;BME280;60035;52.122;5.406;2023-04-30T09:15:36;102598.69;;;13.97;80.39
72157;BME280;60035;52.122;5.406;2023-04-30T09:18:12;102595.06;;;14.09;80.21
72157;BME280;60035;52.122;5.406;2023-04-30T09:20:59;102596.56;;;14.23;80.12
72157;BME280;60035;52.122;5.406;2023-04-30T09:23:28;102595.47;;;14.36;79.55
72157;BME280;60035;52.122;5.406;2023-04-30T09:25:54;102600.44;;;14.47;78.95
72157;BME280;60035;52.122;5.406;2023-04-30T09:28:22;102596.78;;;14.59;78.33
72157;BME280;60035;52.122;5.406;2023-04-30T09:30:51;102597.53;;;14.67;77.54
72157;BME280;60035;52.122;5.406;2023-04-30T09:33:18;102582.09;;;14.65;76.44
72157;BME280;60035;52.122;5.406;2023-04-30T09:35:45;102588.13;;;14.66;75.88
72157;BME280;60035;52.122;5.406;2023-04-30T09:38:28;102579.25;;;14.79;75.95
72157;BME280;60035;52.122;5.406;2023-04-30T09:40:58;102583.97;;;15.01;76.01
72157;BME280;60035;52.122;5.406;2023-04-30T09:43:26;102583.00;;;15.08;75.06
72157;BME280;60035;52.122;5.406;2023-04-30T09:45:53;102587.06;;;15.20;75.35
72157;BME280;60035;52.122;5.406;2023-04-30T09:48:23;102579.75;;;15.39;74.90
72157;BME280;60035;52.122;5.406;2023-04-30T09:50:50;102580.53;;;15.43;73.30
72157;BME280;60035;52.122;5.406;2023-04-30T09:53:17;102581.50;;;15.37;73.49
72157;BME280;60035;52.122;5.406;2023-04-30T09:55:46;102577.88;;;15.46;71.95
72157;BME280;60035;52.122;5.406;2023-04-30T09:58:13;102567.69;;;15.41;71.29
72157;BME280;60035;52.122;5.406;2023-04-30T10:00:41;102574.00;;;15.65;71.41
72157;BME280;60035;52.122;5.406;2023-04-30T10:03:10;102572.56;;;15.91;70.98
72157;BME280;60035;52.122;5.406;2023-04-30T10:05:39;102557.63;;;16.04;69.01
72157;BME280;60035;52.122;5.406;2023-04-30T10:08:09;102556.78;;;16.04;68.71
72157;BME280;60035;52.122;5.406;2023-04-30T10:10:39;102559.09;;;16.14;68.87
72157;BME280;60035;52.122;5.406;2023-04-30T10:13:10;102553.31;;;16.38;68.07
72157;BME280;60035;52.122;5.406;2023-04-30T10:15:50;102554.69;;;16.51;67.24
72157;BME280;60035;52.122;5.406;2023-04-30T10:18:33;102555.75;;;16.75;67.40
72157;BME280;60035;52.122;5.406;2023-04-30T10:21:06;102546.06;;;16.82;65.16
72157;BME280;60035;52.122;5.406;2023-04-30T10:23:37;102544.25;;;16.86;64.43
72157;BME280;60035;52.122;5.406;2023-04-30T10:26:05;102540.06;;;16.81;64.11
72157;BME280;60035;52.122;5.406;2023-04-30T10:28:32;102541.50;;;16.92;64.05
72157;BME280;60035;52.122;5.406;2023-04-30T10:30:58;102543.31;;;17.18;63.70
72157;BME280;60035;52.122;5.406;2023-04-30T10:36:47;102530.09;;;17.27;61.27
72157;BME280;60035;52.122;5.406;2023-04-30T10:39:17;102530.56;;;17.40;59.93
72157;BME280;60035;52.122;5.406;2023-04-30T10:41:44;102531.63;;;17.35;59.87
72157;BME280;60035;52.122;5.406;2023-04-30T10:44:12;102531.22;;;17.47;59.05
72157;BME280;60035;52.122;5.406;2023-04-30T10:46:38;102526.34;;;17.64;57.83
72157;BME280;60035;52.122;5.406;2023-04-30T10:49:06;102524.47;;;17.70;58.08
72157;BME280;60035;52.122;5.406;2023-04-30T10:51:49;102521.63;;;17.77;57.81
72157;BME280;60035;52.122;5.406;2023-04-30T10:54:30;102523.91;;;17.87;57.26
72157;BME280;60035;52.122;5.406;2023-04-30T10:57:17;102514.44;;;17.86;57.05
72157;BME280;60035;52.122;5.406;2023-04-30T11:02:43;102506.88;;;18.06;56.57
72157;BME280;60035;52.122;5.406;2023-04-30T11:05:14;102504.38;;;18.28;55.51
72157;BME280;60035;52.122;5.406;2023-04-30T11:07:50;102509.53;;;18.54;55.47
72157;BME280;60035;52.122;5.406;2023-04-30T11:10:21;102497.06;;;18.63;53.78
72157;BME280;60035;52.122;5.406;2023-04-30T11:12:53;102493.38;;;18.69;53.95
72157;BME280;60035;52.122;5.406;2023-04-30T11:15:23;102493.78;;;18.58;53.56
72157;BME280;60035;52.122;5.406;2023-04-30T11:17:55;102497.59;;;18.72;53.84
72157;BME280;60035;52.122;5.406;2023-04-30T11:20:24;102487.84;;;19.02;53.69
72157;BME280;60035;52.122;5.406;2023-04-30T11:23:07;102481.38;;;19.12;52.14
72157;BME280;60035;52.122;5.406;2023-04-30T11:25:39;102488.34;;;19.12;51.68
72157;BME280;60035;52.122;5.406;2023-04-30T11:28:07;102471.06;;;19.33;50.68
72157;BME280;60035;52.122;5.406;2023-04-30T11:30:37;102472.09;;;19.50;50.44
72157;BME280;60035;52.122;5.406;2023-04-30T11:33:04;102464.59;;;19.64;49.86
72157;BME280;60035;52.122;5.406;2023-04-30T11:35:31;102465.81;;;19.76;48.81
72157;BME280;60035;52.122;5.406;2023-04-30T11:37:59;102458.81;;;19.78;49.66
72157;BME280;60035;52.122;5.406;2023-04-30T11:40:26;102451.81;;;20.01;49.12
72157;BME280;60035;52.122;5.406;2023-04-30T11:42:54;102450.16;;;19.77;47.32
72157;BME280;60035;52.122;5.406;2023-04-30T11:45:20;102457.88;;;19.79;48.92
72157;BME280;60035;52.122;5.406;2023-04-30T11:47:50;102449.00;;;20.05;48.58
72157;BME280;60035;52.122;5.406;2023-04-30T11:50:18;102453.59;;;20.19;47.28
72157;BME280;60035;52.122;5.406;2023-04-30T11:52:51;102448.63;;;19.94;46.68
72157;BME280;60035;52.122;5.406;2023-04-30T11:55:19;102447.09;;;19.90;47.54
72157;BME280;60035;52.122;5.406;2023-04-30T11:57:48;102430.53;;;20.30;46.70
72157;BME280;60035;52.122;5.406;2023-04-30T12:00:16;102438.63;;;20.43;46.06
72157;BME280;60035;52.122;5.406;2023-04-30T12:02:45;102432.44;;;20.46;45.40
72157;BME280;60035;52.122;5.406;2023-04-30T12:07:45;102431.72;;;20.42;46.03
72157;BME280;60035;52.122;5.406;2023-04-30T12:10:12;102431.34;;;20.71;45.47
72157;BME280;60035;52.122;5.406;2023-04-30T12:12:39;102430.59;;;20.86;44.99
72157;BME280;60035;52.122;5.406;2023-04-30T12:15:14;102422.50;;;21.10;45.58
72157;BME280;60035;52.122;5.406;2023-04-30T12:17:41;102419.00;;;21.11;43.57
72157;BME280;60035;52.122;5.406;2023-04-30T12:20:09;102418.38;;;21.23;44.38
72157;BME280;60035;52.122;5.406;2023-04-30T12:22:36;102413.09;;;21.42;42.77
72157;BME280;60035;52.122;5.406;2023-04-30T12:25:07;102409.41;;;21.46;43.17
72157;BME280;60035;52.122;5.406;2023-04-30T12:27:35;102405.84;;;21.32;43.33
72157;BME280;60035;52.122;5.406;2023-04-30T12:30:04;102408.34;;;21.33;42.52
72157;BME280;60035;52.122;5.406;2023-04-30T12:32:37;102413.72;;;21.47;42.05
72157;BME280;60035;52.122;5.406;2023-04-30T12:35:05;102404.59;;;21.74;42.22
72157;BME280;60035;52.122;5.406;2023-04-30T12:37:32;102407.72;;;21.63;42.08
72157;BME280;60035;52.122;5.406;2023-04-30T12:39:59;102404.81;;;21.69;42.79
72157;BME280;60035;52.122;5.406;2023-04-30T12:42:30;102397.94;;;21.84;42.45
72157;BME280;60035;52.122;5.406;2023-04-30T12:44:59;102399.19;;;22.10;41.98
72157;BME280;60035;52.122;5.406;2023-04-30T12:47:26;102392.81;;;22.32;41.51
72157;BME280;60035;52.122;5.406;2023-04-30T12:49:53;102392.44;;;22.40;40.28
72157;BME280;60035;52.122;5.406;2023-04-30T12:52:24;102391.91;;;22.65;41.01
72157;BME280;60035;52.122;5.406;2023-04-30T12:54:51;102392.16;;;22.60;39.93
72157;BME280;60035;52.122;5.406;2023-04-30T12:57:19;102381.38;;;22.19;40.72
72157;BME280;60035;52.122;5.406;2023-04-30T13:02:22;102385.44;;;22.40;40.21
72157;BME280;60035;52.122;5.406;2023-04-30T13:04:49;102374.28;;;22.69;38.73
72157;BME280;60035;52.122;5.406;2023-04-30T13:07:16;102370.16;;;22.65;38.50
72157;BME280;60035;52.122;5.406;2023-04-30T13:09:43;102370.38;;;22.92;38.50
72157;BME280;60035;52.122;5.406;2023-04-30T13:12:09;102360.75;;;23.23;37.71
72157;BME280;60035;52.122;5.406;2023-04-30T13:14:36;102355.38;;;23.26;37.45
72157;BME280;60035;52.122;5.406;2023-04-30T13:17:03;102364.03;;;23.26;37.57
72157;BME280;60035;52.122;5.406;2023-04-30T13:19:32;102358.06;;;23.08;37.45